Time;durP1;ratioP1;P1;durP2;ratioP2;P2;SDS_P1;SDS_P2;PMS_P1;PMS_P2;Temp;Humidity;BMP_temperature;BMP_pressure;BME280_temperature;BME280_humidity;BME280_pressure;Samples;Min_cycle;Max_cycle;Signal;HPM_P1;HPM_P2
2022/04/01 00:02:18;;;;;;;1.30;1.20;;;7.20;40.90;;;;;;5026492;28;20103;-75
2022/04/01 00:04:44;;;;;;;2.50;1.17;;;7.20;41.00;;;;;;4998776;28;20377;-76
2022/04/01 00:07:11;;;;;;;1.55;1.10;;;7.10;40.90;;;;;;5017470;28;20021;-75
2022/04/01 00:09:37;;;;;;;3.08;1.67;;;7.10;40.90;;;;;;5012960;28;20265;-76
2022/04/01 00:12:05;;;;;;;3.40;1.10;;;7.10;41.00;;;;;;5021787;28;20051;-76
2022/04/01 00:14:31;;;;;;;1.88;1.20;;;7.10;41.10;;;;;;5035331;28;20045;-76
2022/04/01 00:16:58;;;;;;;2.20;1.50;;;7.00;40.90;;;;;;5028580;28;20120;-76
2022/04/01 00:19:24;;;;;;;2.53;1.40;;;7.10;41.20;;;;;;5019320;28;20026;-76
2022/04/01 00:21:51;;;;;;;1.67;1.30;;;7.00;41.00;;;;;;5038272;28;20025;-76
2022/04/01 00:24:17;;;;;;;1.73;1.40;;;7.00;41.10;;;;;;5011407;28;20365;-76
2022/04/01 00:26:45;;;;;;;2.38;1.38;;;7.00;41.10;;;;;;5018434;28;20025;-76
2022/04/01 00:29:15;;;;;;;5.07;1.25;;;7.00;41.20;;;;;;4999974;28;20033;-76
2022/04/01 00:31:59;;;;;;;1.80;1.38;;;7.00;41.30;;;;;;5017480;28;20033;-76
2022/04/01 00:34:26;;;;;;;2.38;1.38;;;7.00;41.40;;;;;;5014534;28;20065;-75
2022/04/01 00:36:54;;;;;;;2.92;1.67;;;6.90;41.10;;;;;;5000893;28;20018;-75
2022/04/01 00:39:22;;;;;;;2.03;1.25;;;7.00;41.40;;;;;;5016612;28;20160;-75
2022/04/01 00:41:49;;;;;;;1.48;1.10;;;7.00;41.40;;;;;;5005350;28;20042;-75
2022/04/01 00:44:23;;;;;;;3.40;1.40;;;6.90;41.30;;;;;;5016686;28;20022;-75
2022/04/01 00:46:55;;;;;;;1.75;1.10;;;6.90;41.40;;;;;;5021773;28;20155;-76
2022/04/01 00:49:21;;;;;;;3.17;1.63;;;6.90;41.50;;;;;;5028211;28;20017;-76
2022/04/01 00:51:49;;;;;;;1.77;1.30;;;6.90;41.50;;;;;;5042036;28;20321;-75
2022/04/01 00:54:16;;;;;;;1.35;1.10;;;6.90;41.60;;;;;;5046776;28;20049;-75
2022/04/01 00:56:43;;;;;;;1.52;1.02;;;6.80;41.40;;;;;;5027469;28;20455;-76
2022/04/01 00:59:10;;;;;;;2.55;1.10;;;6.80;41.50;;;;;;5000747;28;20069;-76
2022/04/01 01:01:37;;;;;;;1.45;1.27;;;6.80;41.70;;;;;;5000784;28;20034;-76
2022/04/01 01:04:06;;;;;;;1.38;1.20;;;6.80;42.20;;;;;;5023466;28;20037;-76
2022/04/01 01:06:34;;;;;;;2.33;1.20;;;6.70;41.50;;;;;;5046153;28;20063;-76
2022/04/01 01:09:00;;;;;;;2.15;1.27;;;6.70;41.50;;;;;;5016867;28;20045;-76
2022/04/01 01:11:26;;;;;;;2.15;1.20;;;6.70;41.60;;;;;;5004716;28;20037;-75
2022/04/01 01:13:53;;;;;;;1.75;1.05;;;6.70;41.60;;;;;;5040318;28;20093;-77
2022/04/01 01:16:19;;;;;;;1.45;1.35;;;6.70;41.70;;;;;;5034309;28;20033;-76
2022/04/01 01:18:57;;;;;;;2.35;1.85;;;6.60;41.50;;;;;;5031377;28;20128;-76
2022/04/01 01:21:26;;;;;;;3.63;1.15;;;6.70;41.80;;;;;;5039326;28;20120;-75
2022/04/01 01:23:56;;;;;;;1.50;1.23;;;6.60;41.60;;;;;;5008798;28;20029;-76
2022/04/01 01:26:22;;;;;;;2.60;1.20;;;6.60;41.70;;;;;;5033678;28;20448;-76
2022/04/01 01:28:49;;;;;;;2.28;1.05;;;6.60;41.70;;;;;;5019600;28;20025;-76
2022/04/01 01:31:15;;;;;;;1.80;1.10;;;6.60;41.80;;;;;;5015027;28;20032;-75
2022/04/01 01:33:43;;;;;;;1.83;1.60;;;6.60;41.80;;;;;;5019225;28;20042;-75
2022/04/01 01:36:10;;;;;;;1.10;1.00;;;6.50;41.70;;;;;;5017605;28;20028;-75
2022/04/01 01:38:36;;;;;;;2.95;1.20;;;6.50;41.80;;;;;;5006769;28;20080;-75
2022/04/01 01:41:02;;;;;;;1.98;1.00;;;6.50;41.80;;;;;;5005370;28;20121;-76
2022/04/01 01:43:29;;;;;;;1.75;0.80;;;6.50;41.80;;;;;;4987524;28;20033;-75
2022/04/01 01:45:56;;;;;;;2.13;1.75;;;6.50;41.90;;;;;;5011875;28;20271;-76
2022/04/01 01:48:22;;;;;;;2.78;1.15;;;6.40;41.80;;;;;;4994277;28;20365;-75
2022/04/01 01:56:18;;;;;;;1.88;0.98;;;6.30;41.80;;;;;;5013281;28;20029;-75
2022/04/01 01:58:54;;;;;;;2.10;1.30;;;6.30;41.80;;;;;;5009620;28;20300;-75
2022/04/01 02:01:22;;;;;;;1.10;1.05;;;6.30;41.80;;;;;;5009677;28;20035;-75
2022/04/01 02:03:48;;;;;;;1.90;0.90;;;6.30;41.90;;;;;;5026300;28;20026;-76
2022/04/01 02:06:14;;;;;;;1.02;0.90;;;6.30;42.00;;;;;;5009883;28;20431;-75
2022/04/01 02:08:40;;;;;;;2.47;1.20;;;6.30;42.00;;;;;;5026472;28;20036;-76
2022/04/01 02:11:07;;;;;;;3.13;1.30;;;6.30;42.10;;;;;;5026668;28;20543;-76
2022/04/01 02:13:34;;;;;;;3.55;1.20;;;6.30;42.10;;;;;;5015557;28;20045;-75
2022/04/01 02:16:01;;;;;;;3.03;1.10;;;6.20;41.90;;;;;;5000634;28;20029;-75
2022/04/01 02:18:27;;;;;;;1.50;1.00;;;6.20;41.90;;;;;;5025604;28;20064;-75
2022/04/01 02:20:54;;;;;;;1.25;0.98;;;6.20;41.90;;;;;;5001350;28;20030;-75
2022/04/01 02:23:20;;;;;;;1.33;0.90;;;6.20;42.00;;;;;;5004356;28;20026;-75
2022/04/01 02:25:46;;;;;;;2.22;0.93;;;6.20;42.00;;;;;;5005894;28;20095;-75
2022/04/01 02:28:13;;;;;;;3.28;1.10;;;6.20;42.10;;;;;;5022906;28;20030;-75
2022/04/01 02:30:39;;;;;;;1.63;1.08;;;6.20;42.10;;;;;;5009117;28;20029;-75
2022/04/01 02:33:24;;;;;;;1.10;1.00;;;6.10;42.00;;;;;;5025379;28;20048;-74
2022/04/01 02:35:58;;;;;;;2.08;0.77;;;6.10;42.00;;;;;;5001354;28;20028;-75
2022/04/01 02:38:26;;;;;;;2.60;0.98;;;6.10;42.00;;;;;;4970976;28;20547;-76
2022/04/01 02:40:54;;;;;;;1.65;1.02;;;6.10;42.10;;;;;;4998303;28;20022;-76
2022/04/01 02:43:21;;;;;;;3.55;1.10;;;6.00;42.00;;;;;;5004267;28;20416;-75
2022/04/01 02:45:48;;;;;;;2.95;1.10;;;6.00;42.00;;;;;;5009258;28;20033;-75
2022/04/01 02:48:16;;;;;;;2.45;1.00;;;6.00;42.10;;;;;;4990738;28;20060;-75
2022/04/01 02:51:00;;;;;;;2.42;1.30;;;6.00;42.10;;;;;;5025994;28;20459;-75
2022/04/01 02:53:26;;;;;;;1.58;0.98;;;6.00;42.10;;;;;;5009383;28;20099;-75
2022/04/01 02:55:53;;;;;;;2.17;1.38;;;6.00;42.20;;;;;;5006665;28;20022;-75
2022/04/01 02:58:20;;;;;;;1.80;0.85;;;5.90;42.00;;;;;;4992785;28;20087;-75
2022/04/01 03:00:46;;;;;;;2.63;1.05;;;5.90;42.10;;;;;;5008135;28;20037;-75
2022/04/01 03:03:12;;;;;;;2.28;1.00;;;5.90;42.10;;;;;;5008738;28;20360;-73
2022/04/01 03:05:42;;;;;;;2.08;1.17;;;5.90;42.10;;;;;;5008600;28;20029;-73
2022/04/01 03:08:09;;;;;;;2.05;1.00;;;5.90;42.20;;;;;;5004822;28;20527;-74
2022/04/01 03:10:39;;;;;;;3.97;1.23;;;5.90;42.20;;;;;;4992527;28;20124;-73
2022/04/01 03:13:09;;;;;;;2.20;1.00;;;5.90;42.30;;;;;;5009145;28;20033;-76
2022/04/01 03:15:53;;;;;;;1.50;1.27;;;5.90;42.30;;;;;;5024043;28;20021;-77
2022/04/01 03:18:29;;;;;;;2.65;0.90;;;5.90;42.20;;;;;;5013202;28;20514;-73
2022/04/01 03:20:56;;;;;;;1.10;0.80;;;5.90;42.30;;;;;;5008659;28;20022;-76
2022/04/01 03:23:22;;;;;;;1.58;1.10;;;5.90;42.30;;;;;;5017533;28;20388;-74
2022/04/01 03:25:49;;;;;;;1.58;1.10;;;5.80;42.10;;;;;;5026071;28;20092;-75
2022/04/01 03:28:21;;;;;;;1.40;1.30;;;5.80;42.20;;;;;;4993421;28;20449;-76
2022/04/01 03:30:52;;;;;;;2.45;0.80;;;5.80;42.20;;;;;;5007789;28;20045;-75
2022/04/01 03:33:22;;;;;;;2.63;0.93;;;5.80;42.30;;;;;;5008389;28;20075;-76
2022/04/01 03:35:49;;;;;;;1.45;0.95;;;5.80;42.30;;;;;;5009064;28;20426;-76
2022/04/01 03:38:20;;;;;;;3.63;1.15;;;5.70;42.20;;;;;;5007629;28;20223;-75
2022/04/01 03:40:49;;;;;;;2.58;1.25;;;5.70;42.20;;;;;;5008418;28;20033;-76
2022/04/01 03:43:17;;;;;;;4.55;1.30;;;5.70;42.20;;;;;;5008458;28;20041;-76
2022/04/01 03:45:48;;;;;;;1.10;0.77;;;5.70;42.30;;;;;;5008250;28;20096;-74
2022/04/01 03:48:29;;;;;;;1.17;1.08;;;5.70;42.40;;;;;;5008378;28;20496;-74
2022/04/01 03:50:57;;;;;;;2.63;1.25;;;5.60;42.30;;;;;;5023813;28;20395;-74
2022/04/01 03:53:29;;;;;;;2.08;1.10;;;5.60;42.30;;;;;;5008589;28;20535;-74
2022/04/01 03:55:58;;;;;;;1.15;1.05;;;5.60;42.30;;;;;;5007920;28;20237;-74
2022/04/01 03:58:51;;;;;;;3.72;1.77;;;5.60;42.30;;;;;;5007418;28;20173;-75
2022/04/01 04:01:56;;;;;;;3.40;1.00;;;5.60;42.40;;;;;;4951473;28;20038;-74
2022/04/01 04:04:22;;;;;;;1.75;0.98;;;5.50;42.20;;;;;;4968854;28;20126;-74
2022/04/01 04:06:49;;;;;;;3.78;1.10;;;5.60;42.30;;;;;;4975415;28;20069;-74
2022/04/01 04:09:16;;;;;;;1.92;0.90;;;5.60;42.40;;;;;;5008374;28;20030;-74
2022/04/01 04:11:44;;;;;;;2.58;1.33;;;5.50;42.20;;;;;;5027440;28;20403;-74
2022/04/01 04:14:27;;;;;;;1.67;0.93;;;5.50;42.20;;;;;;4997769;28;20035;-74
2022/04/01 04:16:56;;;;;;;2.85;1.13;;;5.60;42.40;;;;;;5010564;28;20555;-74
2022/04/01 04:19:42;;;;;;;2.55;1.00;;;5.60;42.40;;;;;;5027997;28;20092;-74
2022/04/01 04:22:20;;;;;;;1.58;1.33;;;5.50;42.30;;;;;;5012593;28;20112;-74
2022/04/01 04:24:56;;;;;;;3.28;1.58;;;5.50;42.30;;;;;;5028579;28;20387;-73
2022/04/01 04:27:29;;;;;;;3.50;1.02;;;5.50;42.30;;;;;;5010118;28;20052;-74
2022/04/01 04:30:08;;;;;;;2.90;0.98;;;5.50;42.30;;;;;;5011743;28;20093;-74
2022/04/01 04:33:08;;;;;;;1.83;0.88;;;5.50;42.40;;;;;;5003849;28;20041;-74
2022/04/01 04:35:40;;;;;;;1.65;0.88;;;5.50;42.40;;;;;;5016019;28;20036;-75
2022/04/01 04:38:10;;;;;;;2.53;0.90;;;5.40;42.20;;;;;;5010230;28;20045;-74
2022/04/01 04:40:36;;;;;;;1.77;0.90;;;5.50;42.40;;;;;;5011890;28;20086;-75
2022/04/01 04:43:18;;;;;;;2.10;0.90;;;5.40;42.30;;;;;;5027831;28;20033;-75
2022/04/01 04:45:49;;;;;;;2.33;0.90;;;5.40;42.30;;;;;;5011501;28;20479;-75
2022/04/01 04:48:17;;;;;;;2.45;1.05;;;5.40;42.30;;;;;;5008244;28;20428;-75
2022/04/01 04:50:47;;;;;;;2.13;0.77;;;5.40;42.90;;;;;;5011415;28;20051;-75
2022/04/01 04:53:14;;;;;;;1.17;1.05;;;5.40;42.40;;;;;;5014480;28;20033;-75
2022/04/01 04:55:42;;;;;;;1.45;0.70;;;5.40;42.40;;;;;;4997234;28;20068;-74
2022/04/01 04:58:09;;;;;;;2.58;0.93;;;5.40;42.40;;;;;;5023566;28;20041;-74
2022/04/01 05:00:41;;;;;;;4.63;1.17;;;5.40;42.40;;;;;;5011257;28;20017;-74
2022/04/01 05:03:41;;;;;;;1.88;0.75;;;5.40;42.40;;;;;;5006240;28;20045;-75
2022/04/01 05:06:11;;;;;;;2.30;0.75;;;5.40;42.50;;;;;;5025756;28;20037;-75
2022/04/01 05:09:25;;;;;;;1.55;0.93;;;5.40;42.40;;;;;;5022629;28;20034;-74
2022/04/01 05:12:12;;;;;;;0.85;0.80;;;5.30;42.20;;;;;;5001882;28;20060;-74
2022/04/01 05:15:09;;;;;;;2.15;0.90;;;5.40;42.40;;;;;;4997393;28;20161;-74
2022/04/01 05:18:09;;;;;;;1.45;0.63;;;5.40;42.40;;;;;;5019888;28;20029;-74
2022/04/01 05:20:38;;;;;;;2.17;0.98;;;5.40;42.50;;;;;;5022978;28;20495;-74
2022/04/01 05:23:15;;;;;;;4.80;0.80;;;5.40;42.40;;;;;;5002870;28;20396;-74
2022/04/01 05:25:54;;;;;;;3.20;0.90;;;5.40;42.50;;;;;;5005520;28;20033;-74
2022/04/01 05:28:51;;;;;;;1.75;0.65;;;5.30;42.30;;;;;;5024319;28;20060;-74
2022/04/01 05:31:26;;;;;;;2.42;0.85;;;5.40;42.50;;;;;;5002124;28;20045;-73
2022/04/01 05:34:16;;;;;;;1.38;0.80;;;5.30;42.40;;;;;;5000530;28;20041;-74
2022/04/01 05:36:43;;;;;;;1.75;1.02;;;5.30;42.50;;;;;;5024185;28;20084;-74
2022/04/01 05:39:12;;;;;;;1.80;0.80;;;5.30;42.40;;;;;;5002117;28;20060;-74
2022/04/01 05:41:41;;;;;;;0.68;0.47;;;5.30;42.40;;;;;;5001556;28;20037;-75
2022/04/01 05:44:09;;;;;;;0.98;0.77;;;5.30;42.50;;;;;;5010733;28;20392;-74
2022/04/01 05:46:40;;;;;;;3.60;1.25;;;5.30;42.50;;;;;;5022387;28;20041;-76
2022/04/01 05:49:09;;;;;;;1.98;0.90;;;5.30;42.50;;;;;;5021858;28;20033;-78
2022/04/01 05:51:36;;;;;;;3.65;0.70;;;5.30;42.50;;;;;;5008382;28;20474;-74
2022/04/01 05:54:05;;;;;;;1.40;0.85;;;5.30;42.60;;;;;;5021206;28;20119;-76
2022/04/01 05:56:35;;;;;;;2.17;1.30;;;5.30;42.70;;;;;;5003640;28;20537;-77
2022/04/01 05:59:01;;;;;;;1.63;1.10;;;5.30;42.80;;;;;;5012488;28;20032;-79
2022/04/01 06:01:41;;;;;;;2.58;1.15;;;5.30;42.80;;;;;;5019652;28;20041;-74
2022/04/01 06:04:41;;;;;;;3.70;1.17;;;5.30;42.80;;;;;;5034048;28;20069;-76
2022/04/01 06:07:23;;;;;;;1.95;1.00;;;5.30;42.80;;;;;;4997814;28;20120;-77
2022/04/01 06:10:11;;;;;;;2.97;1.08;;;5.40;42.90;;;;;;5016820;28;20029;-78
2022/04/01 06:13:11;;;;;;;1.90;0.65;;;5.30;42.70;;;;;;4973279;28;20049;-77
2022/04/01 06:16:11;;;;;;;3.25;1.10;;;5.30;42.60;;;;;;4980540;28;20048;-77
2022/04/01 06:19:40;;;;;;;7.90;1.20;;;5.40;42.80;;;;;;5009741;28;20143;-75
2022/04/01 06:22:10;;;;;;;8.55;1.52;;;5.40;42.90;;;;;;5036442;28;20042;-77
2022/04/01 06:25:10;;;;;;;2.33;1.08;;;5.40;42.70;;;;;;5037732;28;20096;-76
2022/04/01 06:27:39;;;;;;;5.25;1.13;;;5.50;42.80;;;;;;5010907;28;20025;-77
2022/04/01 06:30:10;;;;;;;1.63;0.88;;;5.60;42.90;;;;;;5022589;28;20033;-76
2022/04/01 06:32:56;;;;;;;2.30;0.80;;;5.80;43.00;;;;;;5029461;28;20033;-78
2022/04/01 06:35:44;;;;;;;3.92;1.00;;;6.00;43.10;;;;;;5020327;28;20037;-77
2022/04/01 06:38:46;;;;;;;2.03;0.88;;;6.20;43.10;;;;;;4998922;28;20099;-77
2022/04/01 06:41:20;;;;;;;3.78;1.05;;;6.50;43.10;;;;;;5010329;28;20059;-74
2022/04/01 06:43:55;;;;;;;3.05;1.00;;;6.80;43.20;;;;;;5013558;28;20060;-77
2022/04/01 06:46:51;;;;;;;2.92;0.95;;;7.10;43.20;;;;;;4972315;28;20053;-77
2022/04/01 06:49:22;;;;;;;3.60;1.23;;;7.40;43.10;;;;;;5012591;28;20080;-78
2022/04/01 06:52:07;;;;;;;3.03;0.90;;;7.60;42.90;;;;;;5024796;28;20037;-78
2022/04/01 06:54:52;;;;;;;2.25;0.93;;;7.90;43.00;;;;;;5025387;28;20037;-77
2022/04/01 06:57:42;;;;;;;1.83;0.70;;;8.20;43.00;;;;;;5022150;28;20029;-76
2022/04/01 07:00:16;;;;;;;1.45;0.95;;;8.50;43.00;;;;;;4995698;28;20042;-74
2022/04/01 07:02:42;;;;;;;4.53;0.93;;;8.70;42.80;;;;;;5008328;28;20029;-76
2022/04/01 07:05:09;;;;;;;4.10;1.60;;;8.90;42.80;;;;;;5010676;28;20029;-74
2022/04/01 07:07:36;;;;;;;1.35;0.93;;;9.00;42.70;;;;;;5023518;28;20103;-76
2022/04/01 07:10:03;;;;;;;2.30;0.88;;;9.10;42.70;;;;;;5015770;28;20120;-76
2022/04/01 07:12:29;;;;;;;3.20;0.90;;;9.10;42.60;;;;;;5025759;28;20379;-76
2022/04/01 07:14:55;;;;;;;1.45;0.70;;;9.10;42.60;;;;;;5030941;28;20043;-75
2022/04/01 07:17:21;;;;;;;1.83;0.90;;;9.10;42.60;;;;;;5018946;28;20030;-76
2022/04/01 07:19:47;;;;;;;3.33;1.00;;;9.10;43.20;;;;;;5021129;28;20037;-75
2022/04/01 07:22:13;;;;;;;1.63;0.75;;;9.10;42.60;;;;;;5012119;28;20079;-76
2022/04/01 07:24:39;;;;;;;2.42;0.90;;;9.00;42.40;;;;;;4999687;28;20116;-76
2022/04/01 07:27:05;;;;;;;1.75;1.10;;;9.10;42.60;;;;;;5030056;28;20029;-76
2022/04/01 07:29:31;;;;;;;1.65;0.90;;;9.00;42.40;;;;;;5024561;28;20300;-75
2022/04/01 07:34:44;;;;;;;1.85;0.80;;;9.10;42.50;;;;;;5035870;28;20041;-77
2022/04/01 07:37:11;;;;;;;5.15;1.00;;;9.00;42.20;;;;;;4999785;28;20033;-75
2022/04/01 07:39:37;;;;;;;4.40;0.90;;;9.10;42.30;;;;;;5022891;28;20046;-75
2022/04/01 07:42:04;;;;;;;1.98;0.85;;;9.10;42.20;;;;;;5038171;28;20052;-76
2022/04/01 07:44:30;;;;;;;3.10;1.00;;;9.20;42.20;;;;;;5026467;28;20377;-75
2022/04/01 07:46:57;;;;;;;1.95;1.20;;;9.30;42.20;;;;;;5032932;28;20433;-75
2022/04/01 07:49:23;;;;;;;1.75;0.90;;;9.30;41.90;;;;;;5027281;28;20431;-76
2022/04/01 07:51:49;;;;;;;1.52;0.85;;;9.40;41.80;;;;;;5019123;28;20038;-76
2022/04/01 07:54:15;;;;;;;4.22;1.05;;;9.50;41.70;;;;;;5026606;28;20136;-75
2022/04/01 07:56:41;;;;;;;3.38;0.85;;;9.60;41.80;;;;;;5023914;28;20030;-76
2022/04/01 07:59:09;;;;;;;1.45;0.85;;;9.70;41.70;;;;;;5008240;28;20040;-76
2022/04/01 08:01:36;;;;;;;3.70;1.15;;;9.80;41.60;;;;;;5026006;28;20029;-75
2022/04/01 08:04:03;;;;;;;5.38;1.33;;;9.80;41.40;;;;;;4999673;28;20374;-76
2022/04/01 08:06:30;;;;;;;3.70;1.00;;;9.80;41.50;;;;;;5009985;28;20069;-75
2022/04/01 08:08:58;;;;;;;3.10;0.90;;;9.70;41.40;;;;;;5027274;28;20033;-76
2022/04/01 08:11:28;;;;;;;2.45;1.20;;;9.70;41.50;;;;;;5010935;28;20036;-77
2022/04/01 08:13:57;;;;;;;2.33;0.90;;;9.60;41.50;;;;;;5010795;28;20041;-76
2022/04/01 08:16:23;;;;;;;1.25;0.90;;;9.60;41.60;;;;;;5029151;28;20029;-76
2022/04/01 08:18:49;;;;;;;5.20;1.05;;;9.50;41.50;;;;;;4998148;28;20490;-74
2022/04/01 08:21:15;;;;;;;1.95;1.02;;;9.50;41.60;;;;;;5019829;28;20021;-75
2022/04/01 08:23:42;;;;;;;2.90;1.13;;;9.40;41.50;;;;;;5048211;28;20044;-76
2022/04/01 08:26:08;;;;;;;1.00;0.77;;;9.40;41.60;;;;;;5043716;28;20024;-75
2022/04/01 08:28:35;;;;;;;1.70;1.00;;;9.30;41.50;;;;;;5047735;28;20076;-77
2022/04/01 08:31:03;;;;;;;3.20;0.88;;;9.30;41.60;;;;;;5046077;28;20026;-76
2022/04/01 08:33:29;;;;;;;2.40;1.10;;;9.40;41.80;;;;;;5013804;28;20040;-77
2022/04/01 08:35:56;;;;;;;4.50;0.82;;;9.30;41.60;;;;;;5011753;28;20410;-76
2022/04/01 08:38:22;;;;;;;1.17;0.90;;;9.40;41.70;;;;;;5008563;28;20077;-76
2022/04/01 08:40:48;;;;;;;2.53;0.93;;;9.40;41.50;;;;;;5026501;28;20072;-77
2022/04/01 08:43:26;;;;;;;2.90;0.85;;;9.50;41.60;;;;;;5007356;28;20037;-76
2022/04/01 08:45:53;;;;;;;2.55;0.80;;;9.50;41.50;;;;;;5022818;28;20038;-76
2022/04/01 08:48:19;;;;;;;1.23;0.70;;;9.50;41.50;;;;;;4998337;28;20037;-76
2022/04/01 08:50:45;;;;;;;3.28;0.82;;;9.50;41.40;;;;;;5032781;28;20381;-76
2022/04/01 08:53:11;;;;;;;4.53;1.58;;;9.50;41.50;;;;;;5035738;28;20535;-76
2022/04/01 08:55:37;;;;;;;6.32;1.00;;;9.50;41.50;;;;;;5030139;28;20101;-77
2022/04/01 08:58:03;;;;;;;3.17;0.93;;;9.40;41.30;;;;;;4999828;28;20034;-75
2022/04/01 09:00:29;;;;;;;2.20;1.00;;;9.50;41.50;;;;;;5009007;28;20107;-75
2022/04/01 09:03:00;;;;;;;2.13;0.70;;;9.50;41.50;;;;;;5019072;28;20034;-75
2022/04/01 09:05:26;;;;;;;2.20;0.80;;;9.40;41.40;;;;;;5027591;28;20034;-76
2022/04/01 09:08:06;;;;;;;1.20;0.63;;;9.50;41.70;;;;;;4991537;28;20696;-75
2022/04/01 09:10:51;;;;;;;2.30;1.00;;;9.50;41.80;;;;;;5000832;28;20065;-76
2022/04/01 09:13:17;;;;;;;3.80;1.50;;;9.60;41.90;;;;;;5015492;28;20558;-76
2022/04/01 09:15:43;;;;;;;2.05;1.00;;;9.60;41.80;;;;;;5018351;28;20029;-76
2022/04/01 09:18:10;;;;;;;2.92;0.85;;;9.70;41.90;;;;;;5025922;28;20391;-76
2022/04/01 09:20:50;;;;;;;6.43;1.95;;;9.70;41.80;;;;;;5024205;28;20022;-77
2022/04/01 09:23:23;;;;;;;2.50;1.00;;;9.70;41.70;;;;;;5012573;28;20032;-76
2022/04/01 09:25:51;;;;;;;4.35;1.10;;;9.70;41.70;;;;;;5015445;28;20128;-75
2022/04/01 09:28:37;;;;;;;1.90;0.70;;;9.80;41.80;;;;;;5016812;28;20041;-76
2022/04/01 09:31:12;;;;;;;2.30;1.45;;;9.80;41.40;;;;;;5006060;28;20045;-75
2022/04/01 09:33:45;;;;;;;3.22;0.88;;;9.80;41.40;;;;;;5006241;28;20250;-76
2022/04/01 09:36:21;;;;;;;1.75;1.10;;;9.90;41.60;;;;;;5032925;28;20051;-76
2022/04/01 09:38:54;;;;;;;3.50;0.95;;;9.90;41.50;;;;;;5021887;28;20191;-76
2022/04/01 09:41:20;;;;;;;;;;;9.90;41.50;;;;;;5022593;28;20046;-76
2022/04/01 09:43:46;;;;;;;2.65;1.13;;;9.90;41.40;;;;;;5022847;28;20379;-76
2022/04/01 09:46:26;;;;;;;3.20;0.93;;;10.00;41.60;;;;;;5020021;28;20034;-76
2022/04/01 09:48:57;;;;;;;0.85;0.73;;;10.00;41.50;;;;;;5019913;28;20304;-75
2022/04/01 09:51:24;;;;;;;1.63;0.90;;;10.10;41.60;;;;;;5042689;28;20450;-75
2022/04/01 09:53:54;;;;;;;1.20;1.10;;;10.10;41.40;;;;;;5042355;28;20484;-77
2022/04/01 09:56:44;;;;;;;1.92;0.82;;;10.20;41.50;;;;;;5027517;28;20033;-76
2022/04/01 09:59:13;;;;;;;3.50;0.75;;;10.20;41.40;;;;;;5027916;28;20037;-77
2022/04/01 10:01:40;;;;;;;1.58;0.80;;;10.30;41.40;;;;;;5006161;28;20034;-77
2022/04/01 10:04:07;;;;;;;1.63;1.00;;;10.30;41.30;;;;;;5021109;28;20412;-77
2022/04/01 10:06:34;;;;;;;1.75;0.80;;;10.30;41.20;;;;;;5024279;28;20033;-76
2022/04/01 10:09:04;;;;;;;1.15;0.70;;;10.40;41.40;;;;;;5008926;28;20064;-77
2022/04/01 10:11:31;;;;;;;3.17;0.90;;;10.30;41.00;;;;;;5016512;28;20484;-76
2022/04/01 10:14:21;;;;;;;1.98;0.90;;;10.40;41.20;;;;;;5002291;28;20447;-77
2022/04/01 10:16:48;;;;;;;1.52;0.60;;;10.40;41.00;;;;;;5021127;28;20026;-78
2022/04/01 10:19:22;;;;;;;1.33;0.82;;;10.50;41.10;;;;;;5019176;28;20034;-78
2022/04/01 10:21:48;;;;;;;2.17;1.00;;;10.50;40.90;;;;;;5014941;28;20494;-77
2022/04/01 10:24:14;;;;;;;1.65;0.80;;;10.50;40.90;;;;;;5023045;28;20067;-77
2022/04/01 10:26:57;;;;;;;3.35;0.80;;;10.60;41.00;;;;;;5020949;28;20492;-77
2022/04/01 10:29:24;;;;;;;2.05;0.68;;;10.50;40.60;;;;;;5020770;28;20048;-77
2022/04/01 10:31:54;;;;;;;1.33;0.55;;;10.60;40.80;;;;;;5032258;28;20041;-76
2022/04/01 10:34:24;;;;;;;1.67;0.90;;;10.60;40.60;;;;;;5023272;28;20612;-77
2022/04/01 10:37:00;;;;;;;2.38;0.70;;;10.70;41.30;;;;;;5035985;28;20166;-77
2022/04/01 10:39:26;;;;;;;1.42;0.88;;;10.70;40.60;;;;;;5021595;28;20053;-78
2022/04/01 10:42:11;;;;;;;1.63;0.80;;;10.80;41.30;;;;;;5004243;28;20053;-77
2022/04/01 10:44:52;;;;;;;2.08;0.70;;;11.00;40.70;;;;;;5038801;28;20041;-77
2022/04/01 10:47:21;;;;;;;0.88;0.50;;;11.00;40.50;;;;;;5003088;28;20045;-77
2022/04/01 10:52:32;;;;;;;2.90;0.80;;;11.10;40.50;;;;;;4992358;28;20050;-78
2022/04/01 10:55:05;;;;;;;4.07;0.80;;;11.30;40.70;;;;;;5025741;28;20136;-77
2022/04/01 10:57:34;;;;;;;0.82;0.65;;;11.40;40.60;;;;;;5004786;28;20120;-77
2022/04/01 11:00:08;;;;;;;1.25;0.68;;;11.50;40.50;;;;;;5022250;28;20380;-76
2022/04/01 11:02:34;;;;;;;1.73;0.85;;;11.50;40.30;;;;;;5018789;28;20488;-76
2022/04/01 11:05:23;;;;;;;1.73;0.90;;;11.60;40.30;;;;;;5011749;28;20040;-76
2022/04/01 11:08:16;;;;;;;1.27;0.68;;;11.70;40.30;;;;;;5020688;28;20126;-76
2022/04/01 11:11:12;;;;;;;1.35;0.80;;;11.70;40.30;;;;;;5011771;28;20053;-76
2022/04/01 11:13:38;;;;;;;2.15;1.05;;;11.90;40.30;;;;;;5022461;28;20529;-76
2022/04/01 11:16:21;;;;;;;3.17;0.60;;;12.00;40.40;;;;;;5034046;28;20133;-76
2022/04/01 11:19:13;;;;;;;3.17;0.80;;;12.00;40.10;;;;;;4989408;28;20045;-77
2022/04/01 11:21:40;;;;;;;1.35;0.70;;;12.00;39.90;;;;;;4998020;28;20038;-76
2022/04/01 11:24:22;;;;;;;1.23;0.60;;;12.00;40.00;;;;;;5021723;28;20029;-76
2022/04/01 11:26:49;;;;;;;2.53;0.70;;;12.00;39.90;;;;;;5026108;28;20273;-76
2022/04/01 11:29:22;;;;;;;0.98;0.75;;;12.00;40.10;;;;;;5022634;28;20395;-75
2022/04/01 11:31:48;;;;;;;0.77;0.60;;;12.10;40.10;;;;;;5019067;28;20030;-81
2022/04/01 11:34:14;;;;;;;1.42;0.90;;;12.20;40.10;;;;;;5013076;28;20163;-76
2022/04/01 11:36:42;;;;;;;1.33;0.90;;;12.20;39.80;;;;;;5021278;28;20029;-76
2022/04/01 11:39:14;;;;;;;1.00;0.90;;;12.20;39.30;;;;;;5020800;28;20073;-76
2022/04/01 11:41:48;;;;;;;1.85;0.70;;;12.20;39.30;;;;;;5001509;28;20038;-76
2022/04/01 11:44:15;;;;;;;4.57;1.00;;;12.30;39.50;;;;;;5015843;28;20112;-76
2022/04/01 11:46:41;;;;;;;1.02;0.73;;;12.40;39.50;;;;;;5021203;28;20037;-76
2022/04/01 11:49:10;;;;;;;2.63;0.77;;;12.60;39.40;;;;;;5023170;28;20540;-74
2022/04/01 11:51:38;;;;;;;1.38;0.68;;;12.80;39.20;;;;;;5016458;28;20032;-75
2022/04/01 11:54:04;;;;;;;3.33;0.65;;;12.90;39.10;;;;;;5022911;28;20049;-74
2022/04/01 11:56:30;;;;;;;1.85;0.90;;;13.00;39.10;;;;;;5001752;28;20067;-75
2022/04/01 11:58:58;;;;;;;4.65;0.90;;;13.10;39.00;;;;;;5021681;28;20120;-76
2022/04/01 12:01:57;;;;;;;2.53;1.00;;;13.20;38.90;;;;;;5020813;28;20037;-76
2022/04/01 12:04:32;;;;;;;1.77;0.95;;;13.30;38.60;;;;;;5001213;28;20048;-77
2022/04/01 12:09:56;;;;;;;2.70;1.65;;;13.30;38.40;;;;;;5016798;28;20060;-77
2022/04/01 12:12:26;;;;;;;1.35;0.60;;;13.30;38.60;;;;;;4992755;28;20033;-77
2022/04/01 12:14:56;;;;;;;1.13;0.70;;;13.30;38.60;;;;;;5014958;28;20163;-76
2022/04/01 12:17:22;;;;;;;3.70;0.65;;;13.20;38.50;;;;;;5021096;28;20125;-77
2022/04/01 12:19:48;;;;;;;1.35;0.82;;;13.30;38.70;;;;;;5020164;28;20034;-74
2022/04/01 12:22:14;;;;;;;1.63;0.70;;;13.40;38.70;;;;;;5039889;28;20085;-77
2022/04/01 12:24:40;;;;;;;4.72;1.15;;;13.50;38.50;;;;;;5027587;28;20032;-75
2022/04/01 12:27:09;;;;;;;6.03;1.33;;;13.70;38.50;;;;;;5022265;28;20034;-75
2022/04/01 12:29:35;;;;;;;3.00;0.88;;;13.70;38.30;;;;;;5035026;28;20020;-76
2022/04/01 12:32:05;;;;;;;1.15;0.70;;;13.70;38.10;;;;;;5024481;28;20123;-76
2022/04/01 12:34:31;;;;;;;1.25;0.80;;;13.70;37.90;;;;;;5025598;28;20573;-75
2022/04/01 12:37:00;;;;;;;1.20;0.70;;;13.80;38.20;;;;;;5006650;28;20449;-76
2022/04/01 12:39:28;;;;;;;1.20;0.55;;;13.90;38.30;;;;;;5001936;28;20100;-75
2022/04/01 12:41:56;;;;;;;0.50;0.50;;;14.00;38.20;;;;;;5002391;28;20120;-75
2022/04/01 12:44:30;;;;;;;0.73;0.55;;;14.20;38.30;;;;;;5025549;28;20052;-76
2022/04/01 12:47:02;;;;;;;1.85;0.50;;;14.30;38.10;;;;;;5031664;28;20029;-75
2022/04/01 12:49:33;;;;;;;1.80;0.70;;;14.40;38.10;;;;;;5027423;28;20133;-76
2022/04/01 12:52:06;;;;;;;2.35;0.55;;;14.50;38.00;;;;;;5033563;28;20036;-76
2022/04/01 12:54:38;;;;;;;;;;;14.70;38.00;;;;;;5021167;28;20037;-76
2022/04/01 12:57:10;;;;;;;1.13;0.60;;;14.90;38.30;;;;;;5025539;28;19924;-76
2022/04/01 12:59:38;;;;;;;0.55;0.50;;;14.90;38.20;;;;;;5019627;28;20068;-75
2022/04/01 13:02:07;;;;;;;1.70;0.68;;;15.00;38.10;;;;;;5029230;28;20022;-76
2022/04/01 13:04:42;;;;;;;2.90;0.55;;;15.00;37.90;;;;;;5015801;28;20041;-76
2022/04/01 13:07:20;;;;;;;2.78;0.52;;;15.00;37.70;;;;;;5026119;28;21951;-75
2022/04/01 13:09:54;;;;;;;1.20;0.50;;;15.00;37.80;;;;;;5011751;28;20071;-75
2022/04/01 13:12:40;;;;;;;1.17;0.55;;;14.90;37.70;;;;;;4994093;28;20039;-76
2022/04/01 13:15:12;;;;;;;2.22;0.90;;;14.90;37.50;;;;;;5024548;28;20315;-75
2022/04/01 13:17:53;;;;;;;1.75;0.88;;;14.90;37.70;;;;;;5015121;28;20029;-76
2022/04/01 13:20:23;;;;;;;0.80;0.60;;;15.00;37.70;;;;;;5022812;28;20405;-75
2022/04/01 13:22:49;;;;;;;1.17;0.70;;;15.10;37.80;;;;;;5028381;28;20263;-76
2022/04/01 13:25:15;;;;;;;2.65;0.80;;;15.20;37.80;;;;;;5005478;28;20036;-75
2022/04/01 13:27:43;;;;;;;1.30;0.70;;;15.30;37.70;;;;;;5010634;28;20018;-75
2022/04/01 13:30:11;;;;;;;2.05;0.73;;;15.50;37.80;;;;;;5021008;28;20527;-75
2022/04/01 13:32:37;;;;;;;3.10;0.73;;;15.70;37.70;;;;;;4995793;28;20576;-74
2022/04/01 13:35:04;;;;;;;2.47;0.77;;;15.90;37.70;;;;;;5020215;28;20623;-75